createdAt,value
2023-05-15T00:02:17.441Z,14.67
2023-05-15T00:04:48.344Z,14.66
2023-05-15T00:07:19.201Z,14.66
2023-05-15T00:09:52.775Z,14.67
2023-05-15T00:12:23.444Z,14.65
2023-05-15T00:14:54.302Z,14.65
2023-05-15T00:17:24.957Z,14.62
2023-05-15T00:19:57.936Z,14.61
2023-05-15T00:22:29.163Z,14.59
2023-05-15T00:25:02.610Z,14.57
2023-05-15T00:27:34.182Z,14.55
2023-05-15T00:30:09.685Z,14.51
2023-05-15T00:32:40.388Z,14.47
2023-05-15T00:35:11.787Z,14.45
2023-05-15T00:37:42.712Z,14.42
2023-05-15T00:40:24.000Z,14.37
2023-05-15T00:42:56.937Z,14.35
2023-05-15T00:45:29.684Z,14.31
2023-05-15T00:48:01.931Z,14.28
2023-05-15T00:50:36.391Z,14.27
2023-05-15T00:53:09.394Z,14.24
2023-05-15T00:55:43.966Z,14.21
2023-05-15T00:58:16.458Z,14.19
2023-05-15T01:00:50.491Z,14.16
2023-05-15T01:03:21.524Z,14.14
2023-05-15T01:05:52.957Z,14.12
2023-05-15T01:08:30.219Z,14.10
2023-05-15T01:11:06.086Z,14.09
2023-05-15T01:13:36.932Z,14.06
2023-05-15T01:16:09.991Z,14.01
2023-05-15T01:18:41.298Z,13.93
2023-05-15T01:21:38.179Z,13.96
2023-05-15T01:24:21.951Z,13.93
2023-05-15T01:27:15.442Z,13.89
2023-05-15T01:29:59.530Z,13.86
2023-05-15T01:32:38.051Z,13.84
2023-05-15T01:35:16.734Z,13.83
2023-05-15T01:37:50.447Z,13.82
2023-05-15T01:40:22.659Z,13.81
2023-05-15T01:42:59.320Z,13.81
2023-05-15T01:45:32.136Z,13.82
2023-05-15T01:48:05.439Z,13.82
2023-05-15T01:50:38.195Z,13.83
2023-05-15T01:53:11.610Z,13.85
2023-05-15T01:55:43.314Z,13.84
2023-05-15T01:58:17.775Z,13.86
2023-05-15T02:00:50.408Z,13.84
2023-05-15T02:03:22.403Z,13.83
2023-05-15T02:05:56.958Z,13.82
2023-05-15T02:08:31.369Z,13.82
2023-05-15T02:11:03.756Z,13.81
2023-05-15T02:13:38.155Z,13.78
2023-05-15T02:16:09.963Z,13.80
2023-05-15T02:18:41.731Z,13.79
2023-05-15T02:21:32.661Z,13.78
2023-05-15T02:24:03.598Z,13.77
2023-05-15T02:26:40.899Z,13.75
2023-05-15T02:29:23.351Z,13.75
2023-05-15T02:32:03.037Z,13.72
2023-05-15T02:34:41.073Z,13.72
2023-05-15T02:37:18.452Z,13.70
2023-05-15T02:39:54.117Z,13.69
2023-05-15T02:42:26.021Z,13.68
2023-05-15T02:45:01.426Z,13.68
2023-05-15T02:47:38.041Z,13.68
2023-05-15T02:50:10.493Z,13.66
2023-05-15T02:52:41.348Z,13.64
2023-05-15T02:55:13.377Z,13.63
2023-05-15T02:57:44.410Z,13.62
2023-05-15T03:00:18.954Z,13.61
2023-05-15T03:02:49.952Z,13.59
2023-05-15T03:05:20.990Z,13.58
2023-05-15T03:07:52.126Z,13.55
2023-05-15T03:10:24.572Z,13.53
2023-05-15T03:12:55.407Z,13.52
2023-05-15T03:15:28.949Z,13.50
2023-05-15T03:17:59.838Z,13.49
2023-05-15T03:20:30.642Z,13.49
2023-05-15T03:23:01.415Z,13.49
2023-05-15T03:25:32.204Z,13.51
2023-05-15T03:28:03.234Z,13.53
2023-05-15T03:30:36.749Z,13.54
2023-05-15T03:33:07.655Z,13.56
2023-05-15T03:35:38.774Z,13.57
2023-05-15T03:38:09.642Z,13.60
2023-05-15T03:40:41.927Z,13.62
2023-05-15T03:43:12.886Z,13.64
2023-05-15T03:45:47.785Z,13.66
2023-05-15T03:48:18.692Z,13.67
2023-05-15T03:50:49.918Z,13.62
2023-05-15T03:53:20.967Z,13.69
2023-05-15T03:55:51.846Z,13.71
2023-05-15T03:58:23.345Z,13.72
2023-05-15T04:00:56.929Z,13.73
2023-05-15T04:03:27.912Z,13.73
2023-05-15T04:05:58.722Z,13.75
2023-05-15T04:08:29.568Z,13.75
2023-05-15T04:11:00.446Z,13.77
2023-05-15T04:13:31.197Z,13.76
2023-05-15T04:16:04.667Z,13.77
2023-05-15T04:18:35.568Z,13.78
2023-05-15T04:21:06.825Z,13.81
2023-05-15T04:23:37.565Z,13.81
2023-05-15T04:26:08.561Z,13.82
2023-05-15T04:28:40.328Z,13.82
2023-05-15T04:31:18.130Z,13.81
2023-05-15T04:33:49.357Z,13.78
2023-05-15T04:36:23.186Z,13.73
2023-05-15T04:38:54.128Z,13.69
2023-05-15T04:41:24.916Z,13.68
2023-05-15T04:43:55.905Z,13.68
2023-05-15T04:46:29.659Z,13.66
2023-05-15T04:49:00.452Z,13.66
2023-05-15T04:51:31.348Z,13.64
2023-05-15T04:54:02.133Z,13.68
2023-05-15T04:56:32.920Z,13.71
2023-05-15T04:59:04.187Z,13.78
2023-05-15T05:01:37.779Z,13.85
2023-05-15T05:04:08.792Z,13.93
2023-05-15T05:06:39.633Z,14.05
2023-05-15T05:09:11.089Z,14.15
2023-05-15T05:11:43.941Z,14.27
2023-05-15T05:14:15.078Z,14.39
2023-05-15T05:16:48.768Z,14.50
2023-05-15T05:19:19.580Z,14.63
2023-05-15T05:21:50.367Z,14.74
2023-05-15T05:24:21.385Z,14.84
2023-05-15T05:26:52.192Z,14.93
2023-05-15T05:29:22.865Z,15.03
2023-05-15T05:31:56.887Z,15.15
2023-05-15T05:34:27.797Z,15.26
2023-05-15T05:36:58.599Z,15.36
2023-05-15T05:39:29.355Z,15.44
2023-05-15T05:42:00.172Z,15.54
2023-05-15T05:44:30.972Z,15.63
2023-05-15T05:47:04.515Z,15.74
2023-05-15T05:49:35.467Z,15.84
2023-05-15T05:52:11.090Z,15.94
2023-05-15T05:54:41.898Z,16.10
2023-05-15T05:57:12.981Z,16.32
2023-05-15T05:59:44.012Z,16.63
2023-05-15T06:02:17.571Z,17.08
2023-05-15T06:04:48.428Z,17.62
2023-05-15T06:07:19.293Z,18.16
2023-05-15T06:09:50.084Z,18.64
2023-05-15T06:12:22.961Z,19.05
2023-05-15T06:14:53.956Z,19.37
2023-05-15T06:17:27.352Z,19.67
2023-05-15T06:19:58.162Z,19.88
2023-05-15T06:22:29.021Z,20.05
2023-05-15T06:24:59.799Z,20.18
2023-05-15T06:27:30.729Z,20.25
2023-05-15T06:30:01.742Z,20.27
2023-05-15T06:35:48.521Z,20.31
2023-05-15T06:38:19.505Z,20.25
2023-05-15T06:40:50.722Z,20.45
2023-05-15T06:43:21.591Z,20.49
2023-05-15T06:45:53.038Z,20.52
2023-05-15T06:48:24.559Z,20.51
2023-05-15T06:50:58.417Z,20.58
2023-05-15T06:53:29.412Z,20.74
2023-05-15T06:56:00.328Z,20.92
2023-05-15T06:58:34.864Z,21.25
2023-05-15T07:01:09.744Z,21.53
2023-05-15T07:03:40.692Z,22.14
2023-05-15T07:06:14.534Z,22.54
2023-05-15T07:08:45.474Z,23.04
2023-05-15T07:11:16.620Z,23.37
2023-05-15T07:13:47.625Z,23.57
2023-05-15T07:16:18.732Z,23.59
2023-05-15T07:18:49.901Z,23.80
2023-05-15T07:21:26.525Z,23.86
2023-05-15T07:23:57.713Z,23.84
2023-05-15T07:26:34.739Z,23.84
2023-05-15T07:29:10.893Z,23.58
2023-05-15T07:31:45.025Z,23.42
2023-05-15T07:34:16.873Z,23.12
2023-05-15T07:36:50.996Z,23.02
2023-05-15T07:39:24.120Z,22.90
2023-05-15T07:41:55.596Z,22.68
2023-05-15T07:44:26.500Z,22.55
2023-05-15T07:46:58.728Z,22.42
2023-05-15T07:49:29.586Z,22.24
2023-05-15T07:52:04.604Z,22.23
2023-05-15T07:54:35.155Z,22.17
2023-05-15T07:57:06.540Z,22.01
2023-05-15T07:59:38.108Z,21.97
2023-05-15T08:02:09.160Z,21.98
2023-05-15T08:04:40.386Z,21.92
2023-05-15T08:07:14.196Z,21.78
2023-05-15T08:09:45.564Z,21.91
2023-05-15T08:12:21.534Z,21.86
2023-05-15T08:14:53.762Z,21.81
2023-05-15T08:17:26.487Z,21.69
2023-05-15T08:19:57.418Z,21.78
2023-05-15T08:22:31.106Z,21.92
2023-05-15T08:25:04.309Z,22.12
2023-05-15T08:27:39.307Z,22.30
2023-05-15T08:30:11.981Z,22.41
2023-05-15T08:32:45.889Z,22.54
2023-05-15T08:35:17.333Z,22.62
2023-05-15T08:37:50.958Z,22.73
2023-05-15T08:40:34.400Z,22.77
2023-05-15T08:43:16.073Z,22.91
2023-05-15T08:45:47.448Z,22.93
2023-05-15T08:48:21.617Z,22.94
2023-05-15T08:50:53.966Z,22.88
2023-05-15T08:53:27.929Z,22.71
2023-05-15T08:55:59.278Z,22.64
2023-05-15T08:58:30.671Z,22.60
2023-05-15T09:01:03.409Z,22.44
2023-05-15T09:03:34.444Z,22.37
2023-05-15T09:06:06.799Z,22.12
2023-05-15T09:08:42.292Z,21.94
2023-05-15T09:11:14.492Z,21.78
2023-05-15T09:13:45.475Z,21.77
2023-05-15T09:16:16.560Z,21.68
2023-05-15T09:21:45.160Z,21.41
2023-05-15T09:24:28.921Z,21.42
2023-05-15T09:27:07.572Z,21.55
2023-05-15T09:29:40.267Z,21.53
2023-05-15T09:32:13.878Z,21.60
2023-05-15T09:34:46.932Z,21.61
2023-05-15T09:37:32.825Z,21.55
2023-05-15T09:40:17.602Z,21.48
2023-05-15T09:42:55.642Z,21.42
2023-05-15T09:45:27.725Z,21.39
2023-05-15T09:48:00.669Z,21.30
2023-05-15T09:50:38.672Z,21.21
2023-05-15T09:53:09.937Z,21.24
2023-05-15T09:55:45.542Z,21.21
2023-05-15T09:58:18.245Z,21.21
2023-05-15T10:00:51.531Z,21.17
2023-05-15T10:03:24.092Z,21.22
2023-05-15T10:06:05.131Z,21.25
2023-05-15T10:08:37.564Z,21.26
2023-05-15T10:11:11.541Z,21.34
2023-05-15T10:13:42.382Z,21.45
2023-05-15T10:16:13.722Z,21.53
2023-05-15T10:18:45.852Z,21.69
2023-05-15T10:21:19.803Z,21.85
2023-05-15T10:23:53.380Z,21.91
2023-05-15T10:26:30.363Z,21.98
2023-05-15T10:29:02.910Z,22.19
2023-05-15T10:31:34.708Z,22.11
2023-05-15T10:34:05.892Z,22.28
2023-05-15T10:36:38.335Z,22.27
2023-05-15T10:39:10.963Z,22.19
2023-05-15T10:41:44.724Z,22.15
2023-05-15T10:44:17.797Z,22.07
2023-05-15T10:46:48.836Z,21.99
2023-05-15T10:49:20.304Z,21.94
2023-05-15T10:51:51.184Z,21.85
2023-05-15T10:54:22.100Z,21.79
2023-05-15T10:56:59.361Z,21.71
2023-05-15T10:59:37.266Z,21.69
2023-05-15T11:02:24.968Z,21.64
2023-05-15T11:05:00.123Z,21.46
2023-05-15T11:07:32.149Z,21.55
2023-05-15T11:10:04.273Z,21.41
2023-05-15T11:13:02.951Z,21.47
2023-05-15T11:15:45.526Z,21.42
2023-05-15T11:18:17.041Z,21.40
2023-05-15T11:21:11.831Z,21.27
2023-05-15T11:23:44.571Z,21.19
2023-05-15T11:26:36.818Z,21.15
2023-05-15T11:29:26.566Z,21.10
2023-05-15T11:31:57.643Z,20.99
2023-05-15T11:34:36.577Z,20.99
2023-05-15T11:37:20.269Z,20.93
2023-05-15T11:39:51.320Z,20.90
2023-05-15T11:42:22.678Z,20.65
2023-05-15T11:44:56.430Z,20.82
2023-05-15T11:47:27.453Z,20.79
2023-05-15T11:49:58.413Z,20.76
2023-05-15T11:52:30.286Z,20.78
2023-05-15T11:55:03.295Z,20.75
2023-05-15T11:57:34.751Z,20.75
2023-05-15T12:00:10.584Z,20.76
2023-05-15T12:02:41.417Z,20.69
2023-05-15T12:05:13.403Z,20.73
2023-05-15T12:07:47.612Z,20.68
2023-05-15T12:10:21.907Z,20.60
2023-05-15T12:12:55.393Z,20.66
2023-05-15T12:15:30.258Z,20.66
2023-05-15T12:18:02.585Z,20.64
2023-05-15T12:20:36.767Z,20.63
2023-05-15T12:23:09.080Z,20.55
2023-05-15T12:25:40.854Z,20.54
2023-05-15T12:28:12.482Z,20.57
2023-05-15T12:30:47.212Z,20.52
2023-05-15T12:33:18.076Z,20.61
2023-05-15T12:36:00.270Z,20.66
2023-05-15T12:38:34.526Z,20.69
2023-05-15T12:41:05.582Z,20.70
2023-05-15T12:43:36.608Z,20.73
2023-05-15T12:46:10.140Z,20.74
2023-05-15T12:48:40.961Z,20.74
2023-05-15T12:51:12.253Z,20.74
2023-05-15T12:53:48.241Z,20.74
2023-05-15T12:56:21.946Z,20.62
2023-05-15T12:58:54.849Z,20.74
2023-05-15T13:01:29.012Z,20.71
2023-05-15T13:04:00.319Z,20.67
2023-05-15T13:06:45.094Z,20.69
2023-05-15T13:09:17.429Z,20.69
2023-05-15T13:11:48.335Z,20.65
2023-05-15T13:14:21.519Z,20.74
2023-05-15T13:16:55.072Z,20.69
2023-05-15T13:19:26.183Z,20.64
2023-05-15T13:21:57.226Z,20.73
2023-05-15T13:24:28.291Z,20.56
2023-05-15T13:26:59.223Z,20.66
2023-05-15T13:29:30.444Z,20.73
2023-05-15T13:32:04.127Z,20.70
2023-05-15T13:34:35.563Z,20.78
2023-05-15T13:37:06.430Z,20.64
2023-05-15T13:39:37.297Z,20.74
2023-05-15T13:42:08.426Z,20.76
2023-05-15T13:44:39.380Z,20.85
2023-05-15T13:47:13.428Z,20.80
2023-05-15T13:49:45.209Z,20.75
2023-05-15T13:52:16.046Z,20.76
2023-05-15T13:54:47.012Z,20.77
2023-05-15T13:57:17.759Z,20.74
2023-05-15T13:59:48.661Z,20.55
2023-05-15T14:02:23.908Z,20.57
2023-05-15T14:04:54.937Z,20.63
2023-05-15T14:07:26.830Z,20.58
2023-05-15T14:09:58.199Z,20.61
2023-05-15T14:12:28.988Z,20.53
2023-05-15T14:15:05.978Z,20.44
2023-05-15T14:17:41.698Z,20.44
2023-05-15T14:20:15.883Z,20.39
2023-05-15T14:22:46.925Z,20.46
2023-05-15T14:25:17.749Z,20.30
2023-05-15T14:27:48.800Z,20.46
2023-05-15T14:30:19.845Z,20.48
2023-05-15T14:32:54.091Z,20.42
2023-05-15T14:35:25.259Z,20.51
2023-05-15T14:37:56.514Z,20.51
2023-05-15T14:40:27.850Z,20.51
2023-05-15T14:42:59.015Z,20.37
2023-05-15T14:45:30.266Z,20.51
2023-05-15T14:48:04.659Z,20.42
2023-05-15T14:50:35.775Z,20.41
2023-05-15T14:53:06.794Z,20.38
2023-05-15T14:55:38.124Z,20.11
2023-05-15T14:58:11.592Z,20.25
2023-05-15T15:03:49.486Z,20.24
2023-05-15T15:06:20.415Z,20.13
2023-05-15T15:08:51.732Z,20.10
2023-05-15T15:11:22.984Z,19.99
2023-05-15T15:13:53.849Z,20.10
2023-05-15T15:16:25.776Z,20.06
2023-05-15T15:19:00.353Z,20.03
2023-05-15T15:21:32.177Z,20.10
2023-05-15T15:24:02.997Z,19.98
2023-05-15T15:26:34.059Z,20.08
2023-05-15T15:29:04.869Z,19.94
2023-05-15T15:31:36.386Z,20.06
2023-05-15T15:34:11.867Z,19.96
2023-05-15T15:36:44.035Z,20.08
2023-05-15T15:39:16.272Z,20.06
2023-05-15T15:41:48.123Z,20.01
2023-05-15T15:44:18.959Z,19.95
2023-05-15T15:46:50.129Z,20.05
2023-05-15T15:49:23.972Z,19.84
2023-05-15T15:51:55.215Z,20.06
2023-05-15T15:54:26.770Z,20.03
2023-05-15T15:56:57.825Z,19.91
2023-05-15T15:59:28.921Z,19.92
2023-05-15T16:02:01.541Z,20.02
2023-05-15T16:04:35.214Z,19.83
2023-05-15T16:07:06.573Z,19.92
2023-05-15T16:09:37.934Z,19.98
2023-05-15T16:12:10.128Z,19.99
2023-05-15T16:14:52.130Z,19.85
2023-05-15T16:17:23.472Z,19.94
2023-05-15T16:19:57.851Z,19.91
2023-05-15T16:22:28.949Z,19.89
2023-05-15T16:25:00.031Z,19.60
2023-05-15T16:27:31.463Z,19.84
2023-05-15T16:30:02.601Z,19.77
2023-05-15T16:32:38.535Z,19.74
2023-05-15T16:35:14.908Z,19.72
2023-05-15T16:37:46.138Z,19.77
2023-05-15T16:40:18.208Z,19.70
2023-05-15T16:42:50.516Z,19.65
2023-05-15T16:45:21.640Z,19.58
2023-05-15T16:47:52.944Z,19.62
2023-05-15T16:50:28.289Z,19.58
2023-05-15T16:52:59.482Z,19.54
2023-05-15T16:55:32.226Z,19.47
2023-05-15T16:58:05.700Z,19.25
2023-05-15T17:00:46.883Z,19.25
2023-05-15T17:03:24.449Z,19.31
2023-05-15T17:06:36.467Z,19.31
2023-05-15T17:09:36.244Z,18.45
2023-05-15T17:12:13.732Z,17.25
2023-05-15T17:14:45.410Z,16.26
2023-05-15T17:17:17.500Z,15.53
2023-05-15T17:19:50.894Z,15.00
2023-05-15T17:25:50.749Z,14.83
2023-05-15T17:28:24.238Z,14.95
2023-05-15T17:34:11.946Z,15.44
2023-05-15T17:36:44.774Z,15.68
2023-05-15T17:39:32.547Z,15.92
2023-05-15T17:42:08.148Z,16.02
2023-05-15T17:44:41.051Z,16.28
2023-05-15T17:47:16.457Z,16.52
2023-05-15T17:49:51.516Z,16.67
2023-05-15T17:52:23.007Z,16.74
2023-05-15T17:55:27.069Z,16.96
2023-05-15T17:58:01.289Z,17.00
2023-05-15T18:00:36.311Z,17.10
2023-05-15T18:03:11.112Z,17.22
2023-05-15T18:05:46.828Z,17.25
2023-05-15T18:08:24.535Z,17.20
2023-05-15T18:11:11.092Z,17.39
2023-05-15T18:13:52.609Z,17.43
2023-05-15T18:16:24.766Z,17.41
2023-05-15T18:18:57.274Z,17.33
2023-05-15T18:21:28.984Z,17.49
2023-05-15T18:24:00.060Z,17.51
2023-05-15T18:26:31.742Z,17.42
2023-05-15T18:29:05.821Z,17.51
2023-05-15T18:31:36.944Z,17.59
2023-05-15T18:34:17.869Z,17.71
2023-05-15T18:36:53.387Z,17.77
2023-05-15T18:39:31.506Z,17.85
2023-05-15T18:42:14.657Z,17.77
2023-05-15T18:44:51.516Z,17.97
2023-05-15T18:50:25.416Z,18.03
2023-05-15T18:52:56.988Z,17.93
2023-05-15T18:55:30.498Z,17.93
2023-05-15T18:58:18.874Z,18.02
2023-05-15T19:00:52.809Z,18.11
2023-05-15T19:03:23.981Z,18.02
2023-05-15T19:05:55.703Z,18.15
2023-05-15T19:08:26.860Z,18.10
2023-05-15T19:11:01.598Z,18.04
2023-05-15T19:13:34.860Z,18.14
2023-05-15T19:16:09.455Z,18.20
2023-05-15T19:18:41.998Z,18.13
2023-05-15T19:21:33.899Z,18.08
2023-05-15T19:24:08.013Z,18.24
2023-05-15T19:29:36.470Z,18.21
2023-05-15T19:32:15.811Z,18.27
2023-05-15T19:34:54.229Z,18.16
2023-05-15T19:37:27.849Z,18.33
2023-05-15T19:40:01.704Z,18.28
2023-05-15T19:42:36.156Z,18.37
2023-05-15T19:45:21.850Z,18.24
2023-05-15T19:47:59.532Z,18.29
2023-05-15T19:50:32.011Z,18.42
2023-05-15T19:53:04.552Z,18.39
2023-05-15T19:55:37.842Z,18.39
2023-05-15T19:58:10.780Z,18.28
2023-05-15T20:00:43.647Z,18.44
2023-05-15T20:03:17.562Z,18.26
2023-05-15T20:05:48.709Z,18.43
2023-05-15T20:08:19.898Z,18.43
2023-05-15T20:10:56.984Z,18.41
2023-05-15T20:16:16.004Z,18.34
2023-05-15T20:19:00.566Z,18.25
2023-05-15T20:21:45.545Z,18.28
2023-05-15T20:24:17.939Z,18.30
2023-05-15T20:26:57.433Z,18.34
2023-05-15T20:29:29.635Z,18.15
2023-05-15T20:32:04.547Z,18.30
2023-05-15T20:34:42.782Z,18.21
2023-05-15T20:37:14.433Z,18.28
2023-05-15T20:39:47.787Z,18.29
2023-05-15T20:42:18.699Z,18.14
2023-05-15T20:44:49.958Z,18.24
2023-05-15T20:47:21.583Z,18.14
2023-05-15T20:49:57.062Z,18.04
2023-05-15T20:52:27.989Z,18.24
2023-05-15T20:55:00.274Z,18.14
2023-05-15T20:57:35.337Z,18.12
2023-05-15T21:00:07.092Z,18.08
2023-05-15T21:02:40.581Z,18.03
2023-05-15T21:05:15.292Z,18.10
2023-05-15T21:07:47.169Z,18.02
2023-05-15T21:10:18.328Z,18.02
2023-05-15T21:12:50.187Z,17.89
2023-05-15T21:15:21.142Z,17.95
2023-05-15T21:17:52.971Z,17.83
2023-05-15T21:20:27.472Z,17.87
2023-05-15T21:22:59.745Z,17.85
2023-05-15T21:25:30.804Z,17.81
2023-05-15T21:28:01.846Z,17.80
2023-05-15T21:30:33.527Z,17.81
2023-05-15T21:33:04.483Z,17.83
2023-05-15T21:35:44.944Z,17.83
2023-05-15T21:38:27.990Z,17.89
2023-05-15T21:40:59.960Z,17.94
2023-05-15T21:43:31.102Z,17.90
2023-05-15T21:46:04.910Z,17.84
2023-05-15T21:48:35.864Z,18.03
2023-05-15T21:51:10.333Z,18.04
2023-05-15T21:53:42.704Z,18.01
2023-05-15T21:56:29.879Z,18.16
2023-05-15T21:59:01.125Z,18.23
2023-05-15T22:01:38.873Z,18.27
2023-05-15T22:04:09.612Z,18.30
2023-05-15T22:06:43.786Z,18.28
2023-05-15T22:09:14.504Z,18.40
2023-05-15T22:11:45.166Z,18.42
2023-05-15T22:14:15.964Z,18.47
2023-05-15T22:16:46.988Z,18.51
2023-05-15T22:19:31.531Z,18.55
2023-05-15T22:22:07.106Z,18.60
2023-05-15T22:24:37.811Z,18.65
2023-05-15T22:27:08.937Z,18.68
2023-05-15T22:29:39.690Z,18.72
2023-05-15T22:32:10.955Z,18.72
2023-05-15T22:34:41.752Z,18.74
2023-05-15T22:37:15.326Z,18.74
2023-05-15T22:39:46.221Z,18.75
2023-05-15T22:42:16.931Z,18.75
2023-05-15T22:44:47.615Z,18.76
2023-05-15T22:47:18.379Z,18.76
2023-05-15T22:49:49.149Z,18.76
2023-05-15T22:52:22.612Z,18.76
2023-05-15T22:54:53.577Z,18.75
2023-05-15T22:57:24.230Z,18.75
2023-05-15T22:59:55.390Z,18.73
2023-05-15T23:02:26.155Z,18.71
2023-05-15T23:04:56.827Z,18.69
2023-05-15T23:07:30.203Z,18.68
2023-05-15T23:10:01.080Z,18.69
2023-05-15T23:12:34.866Z,18.67
2023-05-15T23:15:05.633Z,18.69
2023-05-15T23:17:37.911Z,18.68
2023-05-15T23:20:10.704Z,18.68
2023-05-15T23:22:44.012Z,18.71
2023-05-15T23:25:14.646Z,18.72
2023-05-15T23:27:45.422Z,18.73
2023-05-15T23:30:16.978Z,18.73
2023-05-15T23:32:47.840Z,18.73
2023-05-15T23:35:18.627Z,18.73
2023-05-15T23:37:52.105Z,18.72
2023-05-15T23:40:22.802Z,18.72
2023-05-15T23:42:53.565Z,18.69
2023-05-15T23:45:24.242Z,18.67
2023-05-15T23:47:54.977Z,18.66
2023-05-15T23:50:25.898Z,18.64
2023-05-15T23:52:59.278Z,18.62
2023-05-15T23:55:30.200Z,18.55
2023-05-15T23:58:00.815Z,18.59
